Time;durP1;ratioP1;P1;durP2;ratioP2;P2;SDS_P1;SDS_P2;PMS_P1;PMS_P2;Temp;Humidity;BMP_temperature;BMP_pressure;BME280_temperature;BME280_humidity;BME280_pressure;Samples;Min_cycle;Max_cycle;Signal;HPM_P1;HPM_P2
2024/03/27 00:01:09;;;;;;;8.30;3.90;;;;;;;6.97;63.28;97526.39;273217;1269;22376;-87
2024/03/27 00:07:20;;;;;;;5.50;3.40;;;;;;;7.07;62.93;97525.08;273056;1269;22316;-88
2024/03/27 00:13:24;;;;;;;6.80;3.60;;;;;;;7.19;62.44;97522.69;273164;1269;22666;-90
2024/03/27 00:19:27;;;;;;;7.90;3.90;;;;;;;7.10;62.56;97523.08;272996;1269;22924;-88
2024/03/27 00:25:29;;;;;;;8.20;4.40;;;;;;;7.25;61.85;97514.37;273164;1269;22497;-87
2024/03/27 00:31:30;;;;;;;7.40;3.60;;;;;;;7.48;61.13;97506.75;272877;1269;22408;-88
2024/03/27 00:37:34;;;;;;;8.40;4.10;;;;;;;7.60;60.50;97502.77;271155;1269;22536;-87
2024/03/27 00:43:36;;;;;;;7.40;3.70;;;;;;;7.65;60.31;97492.17;272685;1268;149979;-88
2024/03/27 00:49:38;;;;;;;9.20;4.20;;;;;;;7.64;60.20;97492.95;273002;1269;22370;-87
2024/03/27 00:55:40;;;;;;;9.30;4.30;;;;;;;7.60;60.14;97488.84;273184;1269;22421;-88
2024/03/27 01:01:42;;;;;;;9.80;4.70;;;;;;;7.54;60.12;97480.98;273081;1268;22272;-91
2024/03/27 01:07:51;;;;;;;12.50;5.00;;;;;;;7.48;60.13;97469.64;273040;1257;23439;-86
2024/03/27 01:13:53;;;;;;;8.80;4.50;;;;;;;7.37;60.17;97461.95;273079;1268;22792;-90
2024/03/27 01:19:54;;;;;;;13.80;4.60;;;;;;;7.30;60.19;97450.84;272490;1269;22246;-86
2024/03/27 01:25:56;;;;;;;7.40;3.80;;;;;;;7.30;60.00;97441.80;273056;1268;22355;-89
2024/03/27 01:32:05;;;;;;;8.80;4.00;;;;;;;7.35;59.86;97432.86;273021;1269;22413;-87
2024/03/27 01:38:07;;;;;;;7.40;3.70;;;;;;;7.36;59.71;97425.55;273003;1269;22258;-88
2024/03/27 01:44:16;;;;;;;6.60;3.70;;;;;;;7.32;59.60;97423.61;273164;1269;22316;-87
2024/03/27 01:50:22;;;;;;;5.40;2.80;;;;;;;7.26;59.55;97410.09;272972;1269;22373;-86
2024/03/27 01:56:26;;;;;;;4.30;2.40;;;;;;;7.29;59.38;97401.60;272871;1269;22375;-87
2024/03/27 02:02:28;;;;;;;4.80;2.50;;;;;;;7.51;58.58;97388.51;273037;1263;22255;-87
2024/03/27 02:08:29;;;;;;;5.90;2.90;;;;;;;7.67;58.14;97381.84;273008;1269;24203;-86
2024/03/27 02:14:34;;;;;;;7.60;3.50;;;;;;;7.73;57.45;97368.75;273200;1268;22324;-87
2024/03/27 02:21:23;;;;;;;5.70;3.20;;;;;;;7.72;57.05;97364.94;273084;1268;22385;-85
2024/03/27 02:27:25;;;;;;;6.20;3.50;;;;;;;7.66;56.59;97363.16;273023;1269;22462;-87
2024/03/27 02:33:27;;;;;;;6.70;3.20;;;;;;;7.59;56.49;97358.36;273023;1268;22374;-86
2024/03/27 02:39:28;;;;;;;6.90;3.00;;;;;;;7.56;56.44;97336.59;273187;1269;23263;-86
2024/03/27 02:45:30;;;;;;;6.70;2.80;;;;;;;7.58;56.04;97323.52;273155;1269;23436;-87
2024/03/27 02:51:32;;;;;;;5.30;2.80;;;;;;;7.64;55.95;97321.77;272991;1269;22274;-87
2024/03/27 02:57:34;;;;;;;6.80;3.00;;;;;;;7.69;55.98;97325.17;271958;1268;22237;-87
2024/03/27 03:03:36;;;;;;;6.90;2.70;;;;;;;7.67;56.00;97326.42;273062;1269;22435;-86
2024/03/27 03:09:37;;;;;;;5.60;3.10;;;;;;;7.56;55.86;97311.92;271572;1269;24716;-87
2024/03/27 03:15:41;;;;;;;5.10;2.50;;;;;;;7.47;55.91;97295.39;270972;1259;22573;-87
2024/03/27 03:21:42;;;;;;;5.70;2.80;;;;;;;7.40;55.70;97283.06;273114;1269;22344;-87
2024/03/27 03:27:44;;;;;;;6.40;2.90;;;;;;;7.26;55.88;97275.09;272663;1268;22306;-88
2024/03/27 03:33:46;;;;;;;8.70;2.70;;;;;;;7.12;56.04;97277.85;270936;1269;25489;-88
2024/03/27 03:39:48;;;;;;;5.00;2.50;;;;;;;6.92;56.20;97267.49;272566;1269;22413;-88
2024/03/27 03:45:50;;;;;;;6.10;2.30;;;;;;;6.69;56.62;97261.23;273097;1258;24154;-87
2024/03/27 03:51:51;;;;;;;4.60;2.20;;;;;;;6.45;56.95;97251.63;273041;1268;23789;-87
2024/03/27 03:57:53;;;;;;;4.60;2.40;;;;;;;6.19;57.41;97248.14;273250;1268;22378;-87
2024/03/27 04:03:55;;;;;;;5.10;2.90;;;;;;;5.92;58.07;97240.81;273094;1257;22369;-88
2024/03/27 04:09:57;;;;;;;6.20;2.70;;;;;;;5.78;58.44;97242.71;272881;1268;22435;-88
2024/03/27 04:16:01;;;;;;;7.80;3.50;;;;;;;5.60;58.83;97243.05;273221;1268;22476;-87
2024/03/27 04:22:03;;;;;;;10.60;3.20;;;;;;;5.38;59.42;97241.45;273043;1269;22452;-89
2024/03/27 04:28:05;;;;;;;8.00;3.10;;;;;;;5.24;59.91;97249.61;272973;1268;22308;-88
2024/03/27 04:34:07;;;;;;;5.60;2.80;;;;;;;5.24;60.07;97237.90;272225;1268;22330;-90
2024/03/27 04:40:11;;;;;;;5.50;3.00;;;;;;;5.32;60.15;97235.84;272967;1268;22246;-90
2024/03/27 04:46:13;;;;;;;5.00;2.20;;;;;;;5.28;60.43;97219.30;273063;1268;23092;-88
2024/03/27 04:52:14;;;;;;;6.20;3.10;;;;;;;5.22;60.82;97214.33;272658;1269;22290;-87
2024/03/27 04:58:17;;;;;;;7.30;4.30;;;;;;;5.08;61.36;97215.67;273039;1267;22244;-87
2024/03/27 05:04:19;;;;;;;7.00;3.70;;;;;;;4.99;61.91;97213.91;273254;1268;22389;-88
2024/03/27 05:10:22;;;;;;;11.80;5.80;;;;;;;4.97;62.24;97205.70;272702;1268;22617;-87
2024/03/27 05:16:23;;;;;;;9.80;4.00;;;;;;;4.81;62.88;97203.08;272929;1269;22388;-87
2024/03/27 05:22:27;;;;;;;7.30;2.90;;;;;;;4.79;63.73;97191.52;272819;1268;22359;-90
2024/03/27 05:28:29;;;;;;;6.00;3.00;;;;;;;5.05;63.71;97184.97;272780;1268;22992;-87
2024/03/27 05:34:31;;;;;;;9.60;3.70;;;;;;;5.44;63.36;97187.88;273100;1269;22283;-88
2024/03/27 05:40:33;;;;;;;6.30;2.80;;;;;;;5.82;62.87;97190.13;272530;1269;22600;-88
2024/03/27 05:46:35;;;;;;;5.20;2.50;;;;;;;6.32;62.88;97191.61;271239;1269;22338;-87
2024/03/27 05:52:43;;;;;;;6.40;2.60;;;;;;;6.85;62.40;97186.36;272817;1269;22285;-90
2024/03/27 05:58:44;;;;;;;7.50;2.60;;;;;;;7.47;62.01;97183.52;272790;1268;22319;-87
2024/03/27 06:04:55;;;;;;;6.40;2.50;;;;;;;8.23;61.44;97186.12;272921;1268;22398;-87
2024/03/27 06:11:08;;;;;;;5.30;2.20;;;;;;;9.06;59.96;97190.89;272885;1269;22242;-89
2024/03/27 06:17:10;;;;;;;5.80;2.70;;;;;;;9.83;59.59;97189.88;272984;1268;22740;-89
2024/03/27 06:23:12;;;;;;;5.80;2.30;;;;;;;10.35;59.54;97190.73;273073;1268;23618;-88
2024/03/27 06:29:13;;;;;;;7.00;3.30;;;;;;;10.71;58.85;97199.41;273002;1269;22402;-89
2024/03/27 06:35:16;;;;;;;7.40;3.30;;;;;;;10.69;58.58;97199.98;271751;1269;22256;-87
2024/03/27 06:41:17;;;;;;;10.10;2.90;;;;;;;10.43;58.90;97204.27;273116;1269;22327;-88
2024/03/27 06:47:26;;;;;;;17.50;3.80;;;;;;;10.35;59.40;97199.65;273075;1269;23159;-87
2024/03/27 06:53:28;;;;;;;12.40;3.80;;;;;;;10.51;59.75;97189.89;272939;1269;22247;-88
2024/03/27 06:59:30;;;;;;;13.00;4.30;;;;;;;10.90;60.43;97192.56;272918;1269;22452;-90
2024/03/27 07:05:34;;;;;;;8.10;3.30;;;;;;;11.48;60.11;97195.02;273191;1268;22472;-88
2024/03/27 07:11:36;;;;;;;6.90;2.60;;;;;;;12.07;59.69;97185.86;273385;1269;22266;-86
2024/03/27 07:17:38;;;;;;;7.40;2.80;;;;;;;12.51;58.39;97180.48;272784;1268;22423;-86
2024/03/27 07:23:40;;;;;;;11.60;2.30;;;;;;;12.83;57.33;97180.52;273105;1256;23126;-88
2024/03/27 07:29:42;;;;;;;7.30;2.70;;;;;;;13.08;56.67;97176.63;272878;1268;22640;-87
2024/03/27 07:35:45;;;;;;;6.40;2.40;;;;;;;13.42;56.71;97174.15;272737;1268;22349;-90
2024/03/27 07:41:50;;;;;;;5.50;2.40;;;;;;;13.80;56.87;97173.27;272717;1269;22356;-89
2024/03/27 07:47:52;;;;;;;8.80;2.40;;;;;;;14.26;56.66;97171.52;272867;1268;22406;-88
2024/03/27 07:53:54;;;;;;;6.20;2.50;;;;;;;14.67;55.67;97164.24;272961;1269;22351;-87
2024/03/27 07:59:56;;;;;;;5.20;2.30;;;;;;;15.07;55.84;97171.28;272926;1267;23153;-88
2024/03/27 08:05:57;;;;;;;6.20;2.30;;;;;;;15.38;54.81;97173.94;273189;1269;23196;-90
2024/03/27 08:11:59;;;;;;;4.50;2.40;;;;;;;15.44;54.25;97167.27;273182;1269;23016;-89
2024/03/27 08:18:01;;;;;;;8.20;2.60;;;;;;;15.75;54.70;97167.68;272393;1260;22241;-88
2024/03/27 08:24:03;;;;;;;10.50;2.30;;;;;;;16.16;54.27;97166.23;272462;1268;24223;-89
2024/03/27 08:30:06;;;;;;;6.20;2.70;;;;;;;16.46;54.42;97162.45;270620;1269;22722;-89
2024/03/27 08:36:09;;;;;;;7.60;2.30;;;;;;;16.92;54.57;97158.55;272530;1268;22778;-90
2024/03/27 08:42:11;;;;;;;3.20;1.50;;;;;;;17.22;54.47;97153.04;272954;1269;22470;-88
2024/03/27 08:48:14;;;;;;;5.00;1.10;;;;;;;17.49;53.10;97142.29;273169;1269;23432;-87
2024/03/27 08:54:16;;;;;;;2.10;1.10;;;;;;;17.73;52.55;97134.64;273579;1269;22328;-89
2024/03/27 09:00:18;;;;;;;2.00;1.10;;;;;;;18.15;52.14;97136.55;272979;1269;22241;-87
2024/03/27 09:06:20;;;;;;;3.40;1.20;;;;;;;18.33;50.56;97133.08;272962;1269;22410;-89
2024/03/27 09:12:22;;;;;;;2.90;1.20;;;;;;;18.78;51.11;97126.05;272839;1269;23093;-87
2024/03/27 09:18:24;;;;;;;4.70;1.20;;;;;;;19.18;48.87;97127.38;273087;1269;22536;-88
2024/03/27 09:24:28;;;;;;;2.80;1.10;;;;;;;19.24;47.76;97129.80;272700;1269;22352;-88
2024/03/27 09:30:30;;;;;;;6.10;1.50;;;;;;;19.63;48.53;97134.13;272734;1269;22573;-89
2024/03/27 09:36:32;;;;;;;2.50;1.40;;;;;;;20.32;47.90;97132.30;272744;1259;22318;-90
2024/03/27 09:42:36;;;;;;;2.70;1.20;;;;;;;21.03;47.05;97124.80;272086;1269;22261;-89
2024/03/27 09:48:41;;;;;;;4.90;1.30;;;;;;;21.06;45.46;97126.98;272391;1269;22539;-89
2024/03/27 09:54:44;;;;;;;4.30;0.90;;;;;;;20.99;44.70;97124.63;270445;1269;23712;-89
2024/03/27 10:00:46;;;;;;;4.20;1.00;;;;;;;20.96;42.95;97116.23;270647;1269;23724;-88
2024/03/27 10:06:50;;;;;;;3.60;1.10;;;;;;;20.88;42.33;97121.42;272938;1269;22389;-90
2024/03/27 10:12:52;;;;;;;2.50;1.00;;;;;;;20.82;42.06;97118.73;272717;1268;22314;-86
2024/03/27 10:18:54;;;;;;;4.50;1.00;;;;;;;20.87;42.16;97111.00;272200;1269;22239;-90
2024/03/27 10:24:57;;;;;;;3.70;1.00;;;;;;;21.17;42.60;97119.20;273057;1269;22411;-87
2024/03/27 10:31:02;;;;;;;4.20;1.10;;;;;;;21.33;42.06;97118.71;272950;1260;23557;-88
2024/03/27 10:37:04;;;;;;;3.70;1.10;;;;;;;21.73;42.16;97113.48;273216;1269;22425;-89
2024/03/27 10:43:15;;;;;;;2.70;1.00;;;;;;;21.93;41.64;97115.79;272965;1269;22354;-87
2024/03/27 10:49:18;;;;;;;3.90;1.30;;;;;;;22.12;40.83;97112.42;272968;1268;24574;-89
2024/03/27 10:55:20;;;;;;;1.40;1.00;;;;;;;22.10;40.45;97112.02;272904;1269;23508;-88
2024/03/27 11:01:24;;;;;;;6.20;1.70;;;;;;;22.16;39.85;97111.04;273187;1266;22374;-88
2024/03/27 11:07:32;;;;;;;1.10;0.80;;;;;;;22.13;40.40;97101.04;273096;1268;22363;-88
2024/03/27 11:13:34;;;;;;;3.80;1.40;;;;;;;22.54;40.43;97108.09;273074;1269;22496;-89
2024/03/27 11:19:37;;;;;;;2.20;1.20;;;;;;;22.82;39.12;97107.94;272914;1269;23244;-88
2024/03/27 11:25:39;;;;;;;5.10;1.10;;;;;;;22.62;39.08;97105.77;273012;1268;23277;-88
2024/03/27 11:31:42;;;;;;;2.00;1.10;;;;;;;22.55;38.85;97103.38;273175;1264;22257;-88
2024/03/27 11:37:45;;;;;;;3.20;0.90;;;;;;;22.30;38.90;97100.02;273079;1259;22361;-89
2024/03/27 11:43:51;;;;;;;5.30;1.10;;;;;;;22.14;39.02;97097.03;272919;1269;24611;-89
2024/03/27 11:49:53;;;;;;;2.20;0.90;;;;;;;21.97;39.71;97086.94;272941;1269;22354;-89
2024/03/27 11:55:54;;;;;;;2.60;1.00;;;;;;;22.23;40.11;97084.98;273223;1268;22392;-89
2024/03/27 12:02:00;;;;;;;3.30;1.00;;;;;;;22.32;40.51;97077.84;273094;1269;23772;-88
2024/03/27 12:08:07;;;;;;;2.30;1.10;;;;;;;22.23;40.34;97070.79;272957;1269;23078;-89
2024/03/27 12:14:18;;;;;;;3.50;1.00;;;;;;;21.74;40.13;97077.63;272619;1268;23342;-90
2024/03/27 12:20:20;;;;;;;3.30;0.90;;;;;;;21.37;40.65;97079.99;272920;1269;23135;-88
2024/03/27 12:26:22;;;;;;;2.60;1.10;;;;;;;21.02;40.48;97061.67;273060;1269;22452;-89
2024/03/27 12:32:27;;;;;;;2.40;0.90;;;;;;;20.67;41.12;97058.95;273157;1269;23530;-88
2024/03/27 12:38:29;;;;;;;6.50;1.00;;;;;;;20.65;42.11;97054.81;273026;1269;22407;-89
2024/03/27 12:44:31;;;;;;;2.40;1.10;;;;;;;20.63;42.95;97051.51;270749;1269;286300;-89
2024/03/27 12:50:33;;;;;;;1.90;0.90;;;;;;;20.67;42.67;97051.11;272651;1269;23442;-89
2024/03/27 12:56:35;;;;;;;2.60;1.10;;;;;;;20.63;42.70;97046.52;272908;1266;22287;-89
2024/03/27 13:02:38;;;;;;;2.50;1.00;;;;;;;20.74;42.52;97037.64;272818;1269;22346;-90
2024/03/27 13:08:40;;;;;;;4.30;1.10;;;;;;;21.00;42.69;97032.48;272969;1269;22407;-89
2024/03/27 13:14:41;;;;;;;2.60;1.00;;;;;;;21.13;42.66;97028.83;273010;1269;22339;-88
2024/03/27 13:20:46;;;;;;;2.70;0.90;;;;;;;20.85;41.86;97021.18;273035;1260;23257;-88
2024/03/27 13:26:51;;;;;;;2.20;1.00;;;;;;;20.67;42.13;97014.56;273108;1266;22797;-89
2024/03/27 13:32:53;;;;;;;2.90;1.00;;;;;;;20.50;42.30;97010.83;273035;1269;22347;-88
2024/03/27 13:38:56;;;;;;;3.30;1.10;;;;;;;20.25;42.72;97007.70;273273;1269;22326;-90
2024/03/27 13:44:58;;;;;;;2.40;1.10;;;;;;;20.04;42.97;97001.29;272592;1269;22495;-90
2024/03/27 13:51:03;;;;;;;4.10;1.30;;;;;;;20.02;43.54;96996.66;272032;1269;22374;-87
2024/03/27 13:57:05;;;;;;;5.90;1.60;;;;;;;19.96;44.05;96989.42;272606;1269;23534;-87
2024/03/27 14:03:09;;;;;;;2.60;1.30;;;;;;;19.80;44.24;96995.70;272824;1269;23136;-88
2024/03/27 14:09:12;;;;;;;2.30;1.30;;;;;;;19.61;44.42;96993.80;271577;1269;22580;-88
2024/03/27 14:15:14;;;;;;;3.50;1.30;;;;;;;19.48;44.99;96990.39;272755;1269;22412;-89
2024/03/27 14:21:16;;;;;;;3.40;1.30;;;;;;;19.41;45.31;96989.46;272800;1269;22340;-88
2024/03/27 14:27:18;;;;;;;3.70;1.20;;;;;;;19.31;45.54;96995.81;272794;1269;23662;-88
2024/03/27 14:33:20;;;;;;;6.00;1.50;;;;;;;19.18;45.93;96993.98;273067;1269;22331;-89
2024/03/27 14:39:22;;;;;;;2.70;1.40;;;;;;;19.02;46.27;96994.35;272921;1269;22381;-89
2024/03/27 14:45:24;;;;;;;3.50;1.50;;;;;;;18.83;46.65;96999.45;273007;1270;24244;-88
2024/03/27 14:51:25;;;;;;;2.80;1.20;;;;;;;18.62;47.14;96992.98;273010;1268;23801;-88
2024/03/27 14:57:27;;;;;;;2.50;1.10;;;;;;;18.65;47.41;96988.09;273132;1269;22563;-89
2024/03/27 15:03:30;;;;;;;4.50;1.30;;;;;;;18.78;47.74;96981.00;273178;1269;22479;-89
2024/03/27 15:09:33;;;;;;;2.30;1.30;;;;;;;18.75;47.91;96983.63;272942;1270;22247;-89
2024/03/27 15:15:42;;;;;;;2.40;1.20;;;;;;;18.50;47.96;96977.98;273209;1254;22336;-89
2024/03/27 15:21:44;;;;;;;1.70;1.10;;;;;;;18.32;48.54;96968.86;272906;1269;22674;-89
2024/03/27 15:27:46;;;;;;;1.90;1.00;;;;;;;18.10;48.81;96966.58;272603;1269;22278;-87
2024/03/27 15:33:49;;;;;;;1.80;1.20;;;;;;;17.83;49.39;96977.90;273078;1269;22325;-89
2024/03/27 15:39:51;;;;;;;4.90;1.40;;;;;;;17.74;49.88;96984.20;272976;1269;23427;-88
2024/03/27 15:45:53;;;;;;;1.80;1.20;;;;;;;17.67;49.66;96989.27;272915;1269;23783;-88
2024/03/27 15:51:55;;;;;;;4.10;1.50;;;;;;;17.48;49.71;96985.08;273148;1269;23082;-89
2024/03/27 15:57:58;;;;;;;6.20;2.40;;;;;;;17.34;49.93;96988.63;272748;1269;22610;-88
2024/03/27 16:04:00;;;;;;;8.60;3.20;;;;;;;17.19;50.46;96992.99;272422;1270;22476;-89
2024/03/27 16:10:03;;;;;;;6.20;1.70;;;;;;;17.03;50.86;96992.23;272826;1267;22434;-87
2024/03/27 16:16:07;;;;;;;3.90;1.60;;;;;;;16.87;51.30;96995.66;272692;1269;22271;-89
2024/03/27 16:22:09;;;;;;;2.80;1.30;;;;;;;16.69;51.68;96989.01;272791;1269;22409;-89
2024/03/27 16:28:11;;;;;;;1.90;1.20;;;;;;;16.54;52.16;96982.79;273002;1268;22449;-90
2024/03/27 16:34:13;;;;;;;5.60;1.80;;;;;;;16.34;52.49;96972.83;272876;1268;23197;-89
2024/03/27 16:40:16;;;;;;;3.90;1.80;;;;;;;16.08;53.01;96970.64;273008;1269;23574;-88
2024/03/27 16:46:20;;;;;;;2.70;1.40;;;;;;;15.85;53.29;96968.75;272899;1268;22530;-87
2024/03/27 16:52:22;;;;;;;3.50;2.10;;;;;;;15.59;53.71;96960.52;271800;1269;22371;-89
2024/03/27 16:58:26;;;;;;;4.00;1.80;;;;;;;15.34;53.97;96963.31;270618;1269;23259;-89
2024/03/27 17:04:28;;;;;;;5.10;2.60;;;;;;;15.07;54.29;96973.20;270578;1269;22654;-88
2024/03/27 17:10:30;;;;;;;6.70;2.80;;;;;;;14.82;54.73;96980.45;271716;1268;23674;-88
2024/03/27 17:16:32;;;;;;;5.70;3.10;;;;;;;14.61;55.14;96993.75;271163;1268;22459;-88
2024/03/27 17:22:34;;;;;;;7.20;3.00;;;;;;;14.42;55.36;97009.52;270105;1269;22738;-87
2024/03/27 17:28:36;;;;;;;7.00;2.50;;;;;;;14.32;56.00;97021.94;269924;1269;22574;-87
2024/03/27 17:34:38;;;;;;;6.10;3.00;;;;;;;14.19;56.51;97020.41;272850;1269;22466;-87
2024/03/27 17:40:42;;;;;;;9.70;4.00;;;;;;;14.02;57.15;97012.31;273028;1267;22264;-88
2024/03/27 17:46:43;;;;;;;9.50;4.30;;;;;;;13.89;57.50;97017.21;271748;1269;23070;-88
2024/03/27 17:52:46;;;;;;;7.40;4.10;;;;;;;13.79;57.34;97021.52;270869;1269;23882;-88
2024/03/27 17:58:49;;;;;;;9.00;3.10;;;;;;;13.69;57.50;97023.95;271094;1269;22556;-87
2024/03/27 18:04:53;;;;;;;6.20;3.20;;;;;;;13.57;57.72;97029.31;271094;1268;22620;-88
2024/03/27 18:10:54;;;;;;;9.60;4.70;;;;;;;13.38;57.87;97036.64;270809;1268;24970;-89
2024/03/27 18:16:57;;;;;;;8.80;4.60;;;;;;;13.10;58.20;97029.97;271130;1269;22528;-88
2024/03/27 18:22:59;;;;;;;10.60;5.60;;;;;;;12.72;58.65;97029.73;272983;1269;22322;-88
2024/03/27 18:29:01;;;;;;;13.40;6.60;;;;;;;12.42;59.15;97024.45;272957;1269;22335;-88
2024/03/27 18:35:03;;;;;;;10.40;5.90;;;;;;;12.20;59.92;97016.98;265461;1268;10002044;-89
2024/03/27 18:41:05;;;;;;;12.40;6.10;;;;;;;11.98;60.88;97018.37;273023;1269;22450;-88
2024/03/27 18:47:07;;;;;;;11.40;6.40;;;;;;;11.87;61.49;97020.45;272881;1269;24605;-89
2024/03/27 18:53:09;;;;;;;15.60;6.40;;;;;;;11.76;62.18;97015.16;273150;1268;23269;-88
2024/03/27 18:59:10;;;;;;;13.50;7.20;;;;;;;11.65;62.70;97011.35;273080;1269;24280;-89
2024/03/27 19:05:13;;;;;;;19.70;8.20;;;;;;;11.53;63.11;97013.73;273190;1269;22350;-89
2024/03/27 19:11:14;;;;;;;17.40;7.40;;;;;;;11.44;63.61;97015.93;272987;1269;22462;-89
2024/03/27 19:17:16;;;;;;;12.60;6.60;;;;;;;11.41;64.11;97007.92;273039;1267;22429;-90
2024/03/27 19:23:18;;;;;;;13.60;6.50;;;;;;;11.38;64.90;97000.54;273129;1269;22380;-87
2024/03/27 19:29:23;;;;;;;15.80;7.40;;;;;;;11.32;65.15;96988.82;273006;1269;23680;-89
2024/03/27 19:35:26;;;;;;;10.80;6.50;;;;;;;11.24;65.56;96980.86;272115;1268;24218;-90
2024/03/27 19:41:28;;;;;;;11.00;6.00;;;;;;;11.13;65.91;96976.42;270852;1269;23236;-88
2024/03/27 19:47:30;;;;;;;13.00;7.00;;;;;;;11.01;66.48;96974.50;271059;1264;22544;-88
2024/03/27 19:53:31;;;;;;;12.80;7.00;;;;;;;10.90;66.95;96964.83;272275;1269;22480;-88
2024/03/27 19:59:33;;;;;;;14.10;6.90;;;;;;;10.82;67.53;96961.17;273016;1268;22384;-87
2024/03/27 20:05:35;;;;;;;12.00;6.10;;;;;;;10.74;68.02;96954.22;274015;1269;22254;-89
2024/03/27 20:11:37;;;;;;;12.60;7.40;;;;;;;10.62;67.89;96958.95;272983;1268;25094;-89
2024/03/27 20:17:39;;;;;;;11.60;6.60;;;;;;;10.31;68.13;96967.56;273156;1268;23707;-89
2024/03/27 20:23:41;;;;;;;11.70;6.50;;;;;;;10.02;69.26;96972.42;273004;1269;23181;-91
2024/03/27 20:29:43;;;;;;;13.50;7.00;;;;;;;9.85;70.33;96979.29;273245;1269;22371;-88
2024/03/27 20:35:45;;;;;;;14.70;7.10;;;;;;;9.75;70.81;96982.36;271743;1269;22442;-89
2024/03/27 20:41:47;;;;;;;13.90;6.90;;;;;;;9.63;71.39;96982.16;272970;1269;22374;-89
2024/03/27 20:47:49;;;;;;;13.30;7.70;;;;;;;9.55;72.13;96978.31;273147;1269;22408;-88
2024/03/27 20:53:51;;;;;;;13.20;7.40;;;;;;;9.46;72.95;96965.14;273073;1268;22213;-88
2024/03/27 20:59:55;;;;;;;20.40;8.70;;;;;;;9.36;73.72;96957.58;272541;1268;22554;-87
2024/03/27 21:05:57;;;;;;;17.50;9.10;;;;;;;9.29;74.68;96948.55;270765;1269;23759;-89
2024/03/27 21:12:00;;;;;;;19.50;8.80;;;;;;;9.22;75.06;96940.95;272541;1269;23927;-90
2024/03/27 21:18:02;;;;;;;23.70;9.20;;;;;;;9.20;75.97;96933.48;272978;1269;22368;-89
2024/03/27 21:24:04;;;;;;;24.10;9.20;;;;;;;9.23;76.30;96926.04;272944;1269;23222;-90
2024/03/27 21:30:06;;;;;;;21.20;9.20;;;;;;;9.19;76.36;96923.45;273043;1268;22495;-92
2024/03/27 21:36:09;;;;;;;24.10;10.40;;;;;;;9.13;76.86;96924.17;272824;1268;22818;-90
2024/03/27 21:42:12;;;;;;;16.80;9.00;;;;;;;9.02;77.13;96931.14;272789;1268;22466;-90
2024/03/27 21:48:15;;;;;;;17.70;9.70;;;;;;;8.78;77.21;96930.50;273017;1268;22603;-89
2024/03/27 21:54:19;;;;;;;21.70;9.40;;;;;;;8.59;78.47;96921.19;273029;1269;22465;-90
2024/03/27 22:00:21;;;;;;;17.30;9.10;;;;;;;8.54;79.08;96910.27;273210;1269;22472;-89
2024/03/27 22:06:25;;;;;;;20.00;8.90;;;;;;;8.44;79.47;96910.58;272528;1269;22531;-89
2024/03/27 22:12:34;;;;;;;17.60;8.80;;;;;;;8.38;80.29;96900.30;271067;1269;22282;-90
2024/03/27 22:18:36;;;;;;;15.20;9.10;;;;;;;8.43;81.11;96891.02;273273;1269;22314;-90
2024/03/27 22:24:38;;;;;;;12.70;7.90;;;;;;;8.52;81.68;96890.81;273078;1269;23079;-89
2024/03/27 22:30:46;;;;;;;15.60;8.40;;;;;;;8.53;81.46;96891.50;272957;1269;23541;-89
2024/03/27 22:36:48;;;;;;;15.70;8.20;;;;;;;8.48;81.78;96886.83;272285;1269;22547;-89
2024/03/27 22:42:50;;;;;;;28.30;12.00;;;;;;;8.43;82.19;96872.58;271606;1269;22394;-90
2024/03/27 22:48:52;;;;;;;20.20;7.80;;;;;;;8.43;82.78;96860.25;273144;1269;22364;-89
2024/03/27 22:54:54;;;;;;;14.70;7.40;;;;;;;8.47;83.04;96851.55;270941;1268;22585;-89
2024/03/27 23:00:57;;;;;;;13.00;6.90;;;;;;;8.51;83.88;96849.16;270211;1269;22644;-89
2024/03/27 23:06:59;;;;;;;23.80;6.20;;;;;;;8.75;84.61;96840.89;270349;1268;25425;-86
2024/03/27 23:13:01;;;;;;;8.20;5.00;;;;;;;9.41;85.26;96840.98;269917;1268;23757;-91
2024/03/27 23:19:03;;;;;;;9.40;4.60;;;;;;;10.14;85.64;96836.20;271491;1269;23516;-89
2024/03/27 23:25:05;;;;;;;12.10;4.30;;;;;;;10.58;84.93;96830.67;273116;1269;22463;-90
2024/03/27 23:31:07;;;;;;;10.60;4.90;;;;;;;10.77;84.32;96830.23;273124;1267;22322;-90
2024/03/27 23:37:08;;;;;;;11.70;6.20;;;;;;;10.57;82.87;96827.89;272832;1269;26598;-90
2024/03/27 23:43:10;;;;;;;15.40;5.70;;;;;;;10.19;83.04;96807.27;273188;1269;22285;-90
2024/03/27 23:49:13;;;;;;;14.30;6.40;;;;;;;9.94;83.90;96797.40;273326;1269;22342;-90
2024/03/27 23:55:15;;;;;;;12.50;5.10;;;;;;;9.82;84.43;96785.27;273244;1269;22366;-89
